.
WxDataArchive / Data Records for 2006-09-22
2006-09-21 September 2006 2006-09-23

Data Records for Friday, 22 September 2006

Time	Temp	Chill	HIndex	Humid	Dewpt	 Wind 	HiWind	WindDir	Rain 	Barom 
-----	----	-----	------	-----	-----	------	------	-------	-----	----- 
00:00	55.9	55.9	55.9	67	45.1	1	2	68	0.00	29.939 
00:05	55.9	55.9	55.9	68	45.5	1	2	68	0.00	29.939 
00:10	55.7	55.7	55.7	68	45.3	0	2	68	0.00	29.939 
00:15	55.6	55.6	55.6	68	45.2	0	2	90	0.00	29.934 
00:20	55.4	55.4	55.4	69	45.4	0	3	135	0.00	29.934 
00:25	55.3	55.3	55.3	69	45.3	0	1	112	0.00	29.934 
00:30	55.1	55.1	55.1	69	45.1	0	2	112	0.00	29.934 
00:35	55.0	55.0	55.0	70	45.4	1	2	112	0.00	29.934 
00:40	54.8	54.8	54.8	70	45.2	0	1	112	0.00	29.934 
00:45	54.7	54.7	54.7	71	45.5	0	1	112	0.00	29.933 
00:50	54.7	54.7	54.7	70	45.1	0	2	112	0.00	29.933 
00:55	54.7	54.7	54.7	70	45.1	0	1	112	0.00	29.933 
01:00	54.5	54.5	54.5	71	45.3	0	1	112	0.00	29.934 
01:05	54.5	54.5	54.5	72	45.7	0	2	112	0.00	29.934 
01:10	54.4	54.4	54.4	72	45.6	0	2	112	0.00	29.934 
01:15	54.4	54.4	54.4	73	45.9	0	2	112	0.00	29.927 
01:20	54.2	54.2	54.2	73	45.7	1	2	112	0.00	29.927 
01:25	54.2	54.2	54.2	73	45.7	0	2	112	0.00	29.927 
01:30	54.2	54.2	54.2	73	45.7	1	3	90	0.00	29.919 
01:35	54.2	54.2	54.2	73	45.7	0	1	90	0.00	29.919 
01:40	54.1	54.1	54.1	74	46.0	0	1	90	0.00	29.919 
01:45	54.1	54.1	54.1	74	46.0	0	2	90	0.00	29.936 
01:50	54.1	54.1	54.1	74	46.0	0	1	90	0.00	29.936 
01:55	54.1	54.1	54.1	74	46.0	0	2	90	0.00	29.936 
02:00	54.1	54.1	54.1	74	46.0	0	1	90	0.00	29.933 
02:05	53.9	53.9	53.9	75	46.2	0	1	90	0.00	29.933 
02:10	53.9	53.9	53.9	75	46.2	1	3	90	0.00	29.933 
02:15	53.9	53.9	53.9	75	46.2	1	3	90	0.00	29.916 
02:20	54.1	54.1	54.1	75	46.4	1	3	112	0.00	29.916 
02:25	54.1	54.1	54.1	75	46.4	1	2	112	0.00	29.916 
02:30	54.1	54.1	54.1	75	46.4	1	2	112	0.00	29.915 
02:35	54.1	54.1	54.1	75	46.4	1	3	90	0.00	29.915 
02:40	53.9	53.9	53.9	75	46.2	1	3	90	0.00	29.915 
02:45	53.9	53.9	53.9	75	46.2	1	4	90	0.00	29.913 
02:50	53.9	53.9	53.9	75	46.2	1	3	90	0.00	29.913 
02:55	53.9	53.9	53.9	75	46.2	1	3	90	0.00	29.913 
03:00	53.9	53.9	53.9	76	46.5	1	2	90	0.00	29.901 
03:05	53.9	53.9	53.9	76	46.5	1	3	90	0.00	29.901 
03:10	53.8	53.8	53.8	77	46.8	1	2	112	0.00	29.901 
03:15	53.8	53.8	53.8	77	46.8	1	4	112	0.00	29.898 
03:20	53.6	53.6	53.6	77	46.6	1	4	90	0.00	29.898 
03:25	53.6	53.6	53.6	77	46.6	1	3	90	0.00	29.898 
03:30	53.5	53.5	53.5	77	46.5	1	3	90	0.00	29.886 
03:35	53.5	53.5	53.5	78	46.8	2	4	68	0.00	29.886 
03:40	53.3	53.3	53.3	78	46.6	1	3	90	0.00	29.886 
03:45	53.2	53.2	53.2	79	46.9	1	3	90	0.00	29.885 
03:50	53.2	53.2	53.2	79	46.9	1	3	90	0.00	29.885 
03:55	53.1	53.1	53.1	79	46.8	0	2	90	0.00	29.885 
04:00	52.9	52.9	52.9	80	46.9	1	3	90	0.00	29.884 
04:05	52.8	52.8	52.8	80	46.8	1	2	90	0.00	29.884 
04:10	52.6	52.6	52.6	81	46.9	1	3	90	0.00	29.884 
04:15	52.6	52.6	52.6	81	46.9	1	3	90	0.00	29.877 
04:20	52.6	52.6	52.6	81	46.9	1	3	90	0.00	29.877 
04:25	52.6	52.6	52.6	81	46.9	1	3	90	0.00	29.877 
04:30	52.6	52.6	52.6	81	46.9	2	3	90	0.00	29.858 
04:35	52.6	52.6	52.6	81	46.9	2	4	90	0.00	29.858 
04:40	52.8	52.8	52.8	81	47.1	3	7	90	0.00	29.858 
04:45	52.8	52.8	52.8	81	47.1	2	5	68	0.00	29.852 
04:50	52.9	52.9	52.9	81	47.2	1	3	112	0.00	29.852 
04:55	52.9	52.9	52.9	81	47.2	2	6	90	0.00	29.852 
05:00	52.9	52.9	52.9	81	47.2	2	4	90	0.00	29.849 
05:05	53.1	53.1	53.1	81	47.4	2	5	90	0.00	29.849 
05:10	53.1	53.1	53.1	81	47.4	2	5	90	0.00	29.849 
05:15	53.1	53.1	53.1	81	47.4	2	4	90	0.00	29.840 
05:20	53.1	53.1	53.1	81	47.4	2	4	90	0.00	29.840 
05:25	53.1	53.1	53.1	81	47.4	2	5	90	0.00	29.840 
05:30	53.1	53.1	53.1	81	47.4	2	4	90	0.00	29.840 
05:35	53.1	53.1	53.1	81	47.4	2	5	90	0.00	29.840 
05:40	53.1	53.1	53.1	81	47.4	1	3	90	0.00	29.840 
05:45	53.1	53.1	53.1	81	47.4	2	6	68	0.00	29.829 
05:50	53.1	53.1	53.1	81	47.4	2	4	68	0.00	29.829 
05:55	53.2	53.2	53.2	81	47.5	2	4	90	0.00	29.829 
06:00	53.2	53.2	53.2	81	47.5	1	5	90	0.00	29.819 
06:05	53.2	53.2	53.2	81	47.5	2	4	90	0.00	29.819 
06:10	53.2	53.2	53.2	81	47.5	2	5	90	0.00	29.819 
06:15	53.1	53.1	53.1	81	47.4	1	3	90	0.00	29.824 
06:20	53.1	53.1	53.1	81	47.4	1	3	90	0.00	29.824 
06:25	53.1	53.1	53.1	81	47.4	2	5	90	0.00	29.824 
06:30	53.2	53.2	53.2	81	47.5	2	5	112	0.00	29.833 
06:35	53.2	53.2	53.2	81	47.5	1	4	90	0.00	29.833 
06:40	53.2	53.2	53.2	81	47.5	1	3	90	0.00	29.833 
06:45	53.2	53.2	53.2	81	47.5	1	4	90	0.00	29.831 
06:50	53.2	53.2	53.2	81	47.5	1	5	90	0.00	29.831 
06:55	53.2	53.2	53.2	81	47.5	1	3	90	0.00	29.831 
07:00	53.2	53.2	53.2	81	47.5	1	3	90	0.00	29.837 
07:05	53.2	53.2	53.2	81	47.5	1	3	90	0.00	29.837 
07:10	53.2	53.2	53.2	81	47.5	1	3	90	0.00	29.837 
07:15	53.2	53.2	53.2	81	47.5	1	3	90	0.00	29.842 
07:20	53.2	53.2	53.2	81	47.5	1	2	90	0.00	29.842 
07:25	53.3	53.3	53.3	81	47.6	0	1	90	0.00	29.842 
07:30	53.3	53.3	53.3	82	47.9	0	2	90	0.00	29.843 
07:35	53.3	53.3	53.3	82	47.9	0	1	90	0.00	29.843 
07:40	53.3	53.3	53.3	82	47.9	0	1	90	0.00	29.843 
07:45	53.3	53.3	53.3	82	47.9	1	3	90	0.00	29.843 
07:50	53.3	53.3	53.3	82	47.9	1	2	112	0.00	29.843 
07:55	53.5	53.5	53.5	82	48.1	0	2	112	0.00	29.843 
08:00	53.5	53.5	53.5	82	48.1	0	2	112	0.00	29.844 
08:05	53.5	53.5	53.5	82	48.1	0	2	112	0.00	29.844 
08:10	53.6	53.6	53.6	82	48.2	0	1	112	0.00	29.844 
08:15	53.6	53.6	53.6	81	47.9	0	1	112	0.00	29.847 
08:20	53.8	53.8	53.8	81	48.1	0	2	90	0.00	29.847 
08:25	54.1	54.1	54.1	81	48.4	1	3	90	0.00	29.847 
08:30	54.5	54.5	54.5	80	48.5	1	3	112	0.00	29.842 
08:35	55.0	55.0	55.0	80	48.9	1	3	112	0.00	29.842 
08:40	55.3	55.3	55.3	81	49.6	0	2	112	0.00	29.842 
08:45	55.3	55.3	55.3	81	49.6	1	2	112	0.00	29.834 
08:50	55.4	55.4	55.4	82	50.0	0	3	112	0.00	29.834 
08:55	55.4	55.4	55.4	82	50.0	0	2	112	0.00	29.834 
09:00	55.6	55.6	55.6	83	50.5	1	2	112	0.00	29.828 
09:05	55.6	55.6	55.6	83	50.5	1	2	112	0.00	29.828 
09:10	55.6	55.6	55.6	84	50.8	0	2	112	0.00	29.828 
09:15	55.7	55.7	55.7	84	50.9	1	2	112	0.00	29.828 
09:20	55.7	55.7	55.7	84	50.9	1	2	112	0.00	29.828 
09:25	55.9	55.9	55.9	84	51.1	1	3	112	0.00	29.828 
09:30	55.9	55.9	55.9	84	51.1	1	3	112	0.00	29.828 
09:35	55.9	55.9	55.9	84	51.1	1	3	90	0.00	29.828 
09:40	56.0	56.0	56.0	85	51.6	1	2	112	0.00	29.828 
09:45	56.0	56.0	56.0	85	51.6	1	2	112	0.00	29.827 
09:50	56.2	56.2	56.2	86	52.1	1	3	135	0.00	29.827 
09:55	56.2	56.2	56.2	86	52.1	1	2	135	0.00	29.827 
10:00	56.0	56.0	56.0	86	51.9	1	3	135	0.00	29.820 
10:05	56.0	56.0	56.0	87	52.2	1	3	135	0.00	29.820 
10:10	56.0	56.0	56.0	88	52.5	0	2	135	0.00	29.820 
10:15	56.0	56.0	56.0	88	52.5	1	3	135	0.01	29.820 
10:20	55.9	55.9	55.9	89	52.7	2	3	90	0.00	29.820 
10:25	55.9	55.9	55.9	90	53.0	2	4	90	0.00	29.820 
10:30	55.9	55.9	55.9	90	53.0	0	2	135	0.00	29.814 
10:35	56.0	56.0	56.0	91	53.4	1	2	135	0.00	29.814 
10:40	56.2	56.2	56.2	91	53.6	1	2	112	0.00	29.814 
10:45	56.3	56.3	56.3	91	53.7	2	5	112	0.01	29.806 
10:50	56.6	56.6	56.6	91	54.0	2	4	90	0.00	29.806 
10:55	56.7	56.7	56.7	91	54.1	1	3	90	0.00	29.806 
11:00	56.7	56.7	56.7	91	54.1	1	4	135	0.00	29.811 
11:05	56.9	56.9	56.9	91	54.3	1	3	90	0.00	29.811 
11:10	57.0	57.0	57.0	91	54.4	0	2	90	0.00	29.811 
11:15	57.0	57.0	57.0	92	54.7	1	3	112	0.00	29.810 
11:20	57.3	57.3	57.3	92	55.0	1	4	112	0.00	29.810 
11:25	57.5	57.5	57.5	92	55.2	2	4	112	0.00	29.810 
11:30	57.6	57.6	57.6	92	55.3	2	5	90	0.00	29.794 
11:35	58.0	58.0	58.0	92	55.7	2	4	90	0.00	29.794 
11:40	58.1	58.1	58.1	92	55.8	1	3	90	0.00	29.794 
11:45	58.3	58.3	58.3	91	55.7	1	3	90	0.00	29.793 
11:50	58.4	58.4	58.4	91	55.8	1	4	112	0.01	29.793 
11:55	58.6	58.6	58.6	91	56.0	1	3	90	0.00	29.793 
12:00	58.7	58.7	58.7	90	55.8	1	3	90	0.00	29.793 
12:05	58.9	58.9	58.9	91	56.3	1	3	112	0.00	29.793 
12:10	59.2	59.2	59.2	90	56.3	1	4	90	0.00	29.793 
12:15	59.6	59.6	59.6	90	56.7	1	3	90	0.00	29.789 
12:20	59.9	59.9	59.9	89	56.6	2	5	135	0.00	29.789 
12:25	60.2	60.2	60.2	88	56.6	2	7	135	0.00	29.789 
12:30	60.5	60.5	60.5	88	56.9	2	5	112	0.00	29.782 
12:35	60.9	60.9	60.9	87	57.0	3	5	90	0.00	29.782 
12:40	61.0	61.0	61.0	87	57.1	3	7	90	0.00	29.782 
12:45	61.3	61.3	61.3	86	57.1	3	10	90	0.00	29.782 
12:50	61.3	61.3	61.3	86	57.1	2	5	90	0.00	29.782 
12:55	61.5	61.5	61.5	86	57.3	3	7	90	0.00	29.782 
13:00	61.6	61.6	61.6	86	57.4	2	6	90	0.00	29.775 
13:05	61.6	61.6	61.6	86	57.4	2	4	112	0.00	29.775 
13:10	61.8	61.8	61.8	86	57.6	2	7	90	0.00	29.775 
13:15	62.0	62.0	62.0	86	57.8	2	7	112	0.00	29.775 
13:20	62.1	62.1	62.1	85	57.5	2	6	90	0.00	29.775 
13:25	62.4	62.4	62.4	85	57.8	2	5	90	0.00	29.775 
13:30	62.6	62.6	62.6	85	58.0	2	7	90	0.00	29.766 
13:35	62.7	62.7	62.7	84	57.8	3	7	112	0.00	29.766 
13:40	62.9	62.9	62.9	84	58.0	2	8	90	0.00	29.766 
13:45	63.1	63.1	63.1	84	58.2	2	5	68	0.00	29.773 
13:50	63.2	63.2	63.2	84	58.3	3	10	90	0.00	29.773 
13:55	63.2	63.2	63.2	84	58.3	3	11	90	0.00	29.773 
14:00	63.4	63.4	63.4	84	58.5	2	6	68	0.00	29.763 
14:05	63.4	63.4	63.4	84	58.5	2	5	112	0.00	29.763 
14:10	63.5	63.5	63.5	84	58.6	2	9	90	0.00	29.763 
14:15	63.7	63.7	63.7	84	58.8	2	7	90	0.00	29.751 
14:20	63.9	63.9	63.9	84	59.0	3	8	90	0.00	29.751 
14:25	63.9	63.9	63.9	83	58.6	3	5	90	0.00	29.751 
14:30	64.0	64.0	64.0	83	58.7	3	11	90	0.00	29.751 
14:35	64.0	64.0	64.0	83	58.7	3	7	112	0.00	29.751 
14:40	64.0	64.0	64.0	84	59.1	2	9	90	0.00	29.751 
14:45	64.0	64.0	64.0	83	58.7	3	7	112	0.00	29.744 
14:50	64.2	64.2	64.2	83	58.9	2	7	112	0.00	29.744 
14:55	64.2	64.2	64.2	83	58.9	3	7	90	0.00	29.744 
15:00	64.2	64.2	64.2	83	58.9	3	6	90	0.00	29.742 
15:05	64.2	64.2	64.2	83	58.9	3	8	90	0.00	29.742 
15:10	64.2	64.2	64.2	83	58.9	2	5	112	0.00	29.742 
15:15	64.2	64.2	64.2	83	58.9	3	7	90	0.00	29.743 
15:20	64.2	64.2	64.2	83	58.9	3	13	90	0.00	29.743 
15:25	64.2	64.2	64.2	83	58.9	4	6	90	0.00	29.743 
15:30	64.0	64.0	64.0	83	58.7	4	13	112	0.00	29.732 
15:35	64.2	64.2	64.2	84	59.3	3	7	90	0.00	29.732 
15:40	64.2	64.2	64.2	84	59.3	4	9	90	0.00	29.732 
15:45	64.2	64.2	64.2	84	59.3	4	10	112	0.00	29.729 
15:50	64.2	64.2	64.2	84	59.3	2	5	90	0.00	29.729 
15:55	64.2	64.2	64.2	84	59.3	3	11	90	0.00	29.729 
16:00	64.2	64.2	64.2	84	59.3	3	9	90	0.00	29.729 
16:05	64.2	64.2	64.2	84	59.3	4	9	90	0.00	29.729 
16:10	64.2	64.2	64.2	84	59.3	3	8	90	0.00	29.729 
16:15	64.2	64.2	64.2	84	59.3	4	9	90	0.00	29.723 
16:20	64.2	64.2	64.2	85	59.6	3	10	90	0.00	29.723 
16:25	64.3	64.3	64.3	84	59.4	3	7	90	0.00	29.723 
16:30	64.3	64.3	64.3	85	59.7	2	5	112	0.00	29.715 
16:35	64.3	64.3	64.3	85	59.7	2	7	90	0.00	29.715 
16:40	64.3	64.3	64.3	85	59.7	3	6	135	0.00	29.715 
16:45	64.3	64.3	64.3	85	59.7	1	4	68	0.00	29.716 
16:50	64.3	64.3	64.3	85	59.7	2	5	112	0.00	29.716 
16:55	64.3	64.3	64.3	85	59.7	2	6	90	0.00	29.716 
17:00	64.3	64.3	64.3	86	60.0	2	6	112	0.00	29.712 
17:05	64.3	64.3	64.3	86	60.0	2	5	90	0.00	29.712 
17:10	64.3	64.3	64.3	86	60.0	2	7	112	0.00	29.712 
17:15	64.3	64.3	64.3	86	60.0	3	5	112	0.00	29.709 
17:20	64.3	64.3	64.3	86	60.0	2	7	90	0.00	29.709 
17:25	64.3	64.3	64.3	86	60.0	2	6	90	0.00	29.709 
17:30	64.3	64.3	64.3	87	60.3	2	5	90	0.00	29.717 
17:35	64.3	64.3	64.3	86	60.0	2	4	112	0.00	29.717 
17:40	64.3	64.3	64.3	87	60.3	2	6	112	0.00	29.717 
17:45	64.3	64.3	64.3	87	60.3	2	6	112	0.00	29.713 
17:50	64.5	64.5	64.5	87	60.5	2	4	112	0.00	29.713 
17:55	64.5	64.5	64.5	87	60.5	2	5	112	0.00	29.713 
18:00	64.5	64.5	64.5	87	60.5	1	3	270	0.00	29.708 
18:05	64.5	64.5	64.5	87	60.5	2	6	112	0.00	29.708 
18:10	64.5	64.5	64.5	88	60.9	2	4	90	0.00	29.708 
18:15	64.5	64.5	64.5	88	60.9	2	5	90	0.00	29.702 
18:20	64.5	64.5	64.5	89	61.2	3	8	90	0.00	29.702 
18:25	64.3	64.3	64.3	89	61.0	1	3	112	0.00	29.702 
18:30	64.3	64.3	64.3	90	61.3	3	9	90	0.00	29.690 
18:35	64.2	64.2	64.2	90	61.2	3	8	68	0.00	29.690 
18:40	64.2	64.2	64.2	91	61.5	1	5	112	0.00	29.690 
18:45	64.2	64.2	64.2	91	61.5	1	3	112	0.00	29.669 
18:50	64.0	64.0	64.0	91	61.3	2	5	90	0.00	29.669 
18:55	64.0	64.0	64.0	91	61.3	2	7	90	0.00	29.669 
19:00	64.0	64.0	64.0	91	61.3	2	4	90	0.00	29.662 
19:05	64.2	64.2	64.2	91	61.5	2	5	112	0.00	29.662 
19:10	64.2	64.2	64.2	91	61.5	0	2	112	0.00	29.662 
19:15	64.2	64.2	64.2	91	61.5	1	4	112	0.00	29.665 
19:20	64.3	64.3	64.3	90	61.3	1	3	112	0.00	29.665 
19:25	64.3	64.3	64.3	90	61.3	1	4	112	0.00	29.665 
19:30	64.5	64.5	64.5	90	61.5	1	3	112	0.00	29.677 
19:35	64.5	64.5	64.5	90	61.5	1	2	112	0.00	29.677 
19:40	64.5	64.5	64.5	89	61.2	1	3	90	0.00	29.677 
19:45	64.5	64.5	64.5	89	61.2	1	3	112	0.00	29.675 
19:50	64.5	64.5	64.5	89	61.2	1	3	112	0.00	29.675 
19:55	64.7	64.7	64.7	89	61.4	1	4	68	0.00	29.675 
20:00	64.7	64.7	64.7	89	61.4	2	5	112	0.00	29.676 
20:05	64.7	64.7	64.7	89	61.4	1	4	112	0.00	29.676 
20:10	64.7	64.7	64.7	89	61.4	1	3	112	0.00	29.676 
20:15	64.8	64.8	64.8	89	61.5	1	3	90	0.00	29.656 
20:20	64.8	64.8	64.8	89	61.5	1	3	112	0.00	29.656 
20:25	64.8	64.8	64.8	89	61.5	1	3	112	0.00	29.656 
20:30	64.8	64.8	64.8	89	61.5	2	4	112	0.00	29.659 
20:35	65.0	65.0	65.0	89	61.7	2	5	112	0.00	29.659 
20:40	65.0	65.0	65.0	89	61.7	1	2	112	0.00	29.659 
20:45	65.0	65.0	65.0	90	62.0	0	2	112	0.00	29.668 
20:50	65.0	65.0	65.0	90	62.0	1	2	112	0.00	29.668 
20:55	65.0	65.0	65.0	90	62.0	2	5	90	0.00	29.668 
21:00	65.0	65.0	65.0	91	62.3	1	5	112	0.01	29.669 
21:05	65.0	65.0	65.0	91	62.3	1	4	90	0.00	29.669 
21:10	65.0	65.0	65.0	92	62.6	1	4	112	0.00	29.669 
21:15	65.2	65.2	65.2	92	62.8	2	4	90	0.00	29.686 
21:20	65.2	65.2	65.2	91	62.5	2	5	90	0.00	29.686 
21:25	65.3	65.3	65.3	91	62.6	2	5	90	0.00	29.686 
21:30	65.3	65.3	65.3	91	62.6	3	15	112	0.00	29.686 
21:35	65.5	65.5	65.5	91	62.8	2	5	112	0.00	29.686 
21:40	65.6	65.6	65.6	90	62.6	3	9	90	0.00	29.686 
21:45	65.6	65.6	65.6	90	62.6	2	10	90	0.00	29.658 
21:50	65.6	65.6	65.6	90	62.6	2	6	112	0.00	29.658 
21:55	65.6	65.6	65.6	90	62.6	1	5	112	0.00	29.658 
22:00	65.6	65.6	65.6	90	62.6	1	4	270	0.00	29.667 
22:05	65.6	65.6	65.6	90	62.6	1	3	248	0.00	29.667 
22:10	65.5	65.5	65.5	91	62.8	1	3	270	0.01	29.667 
22:15	65.5	65.5	65.5	91	62.8	1	5	90	0.00	29.666 
22:20	65.3	65.3	65.3	91	62.6	2	5	270	0.01	29.666 
22:25	65.3	65.3	65.3	92	62.9	1	5	248	0.00	29.666 
22:30	65.2	65.2	65.2	92	62.8	1	5	270	0.00	29.667 
22:35	65.2	65.2	65.2	92	62.8	0	2	292	0.00	29.667 
22:40	65.2	65.2	65.2	92	62.8	1	4	270	0.01	29.667 
22:45	65.2	65.2	65.2	93	63.1	1	4	248	0.00	29.688 
22:50	65.2	65.2	65.2	93	63.1	2	3	248	0.00	29.688 
22:55	65.0	65.0	65.0	93	62.9	1	3	270	0.09	29.688 
23:00	65.0	65.0	65.0	93	62.9	1	2	315	0.00	29.691 
23:05	65.0	65.0	65.0	94	63.2	0	1	270	0.01	29.691 
23:10	64.8	64.8	64.8	94	63.0	0	0	---	0.00	29.691 
23:15	64.8	64.8	64.8	94	63.0	0	0	---	0.00	29.674 
23:20	64.7	64.7	64.7	94	62.9	0	0	---	0.00	29.674 
23:25	64.7	64.7	64.7	95	63.2	0	0	---	0.00	29.674 
23:30	64.7	64.7	64.7	95	63.2	0	0	---	0.00	29.670 
23:35	64.7	64.7	64.7	95	63.2	0	1	270	0.00	29.670 
23:40	64.7	64.7	64.7	95	63.2	0	0	---	0.00	29.670 
23:45	64.7	64.7	64.7	95	63.2	0	0	---	0.00	29.675 
23:50	64.7	64.7	64.7	95	63.2	0	1	270	0.00	29.675 
23:55	64.5	64.5	64.5	95	63.0	0	0	---	0.01	29.675 

CoCoRaHS
IN-AL-39
A2 Web Hosting
Creative Commons License
GoDaddy
Look for:

loaded 2017-10-17 22:12:13 • last modified 2010-11-18 10:43:29
Privacy PolicyDisclaimer
• wx.awcolley.com is powered by PmWiki v.2002016 •
• all content (unless otherwise noted) © 2017 A W Colley